KEYF

Details ICAO KEYF
Name CURTIS L BROWN JR FIELD
Region United States
Timezone America/New_York (UTC-4.0)
Plans Departing 0
Arriving 2
Stats Elevation 133 ft / 41 m (AMSL)
Location 34.601804° -78.579271°
Runways 1
Magnetic Variation 9.106° W
Sunrise 2018-05-20 10:09:37 UTC / 2018-05-20 06:09:37 Local
Sunset 2018-05-21 00:14:56 UTC / 2018-05-20 20:14:56 Local
Advertisement - Login to hide

Runways

ID Width Length Bearing (true) Bearing (mag) Surface Threshold Offset Overrun Length
15 75 ft / 23 m 5,006 ft / 1,526 m 144.30° 153.41° Asphalt 0 ft / 0 m 0 ft / 0 m
33 75 ft / 23 m 5,006 ft / 1,526 m 324.31° 333.42° Asphalt 0 ft / 0 m 0 ft / 0 m

Map

Weather


0- 5 10 15 20 25 30 35+ Temperature / ° C

Clouds and Precipitation
Forecast for 2018-05-20 18:00 UTC. Updated 4 hours ago

Ground ~20,000 ft ~40,000 ft Winds

METAR

KEYF 202115Z AUTO 19009KT 10SM SCT019 SCT060 27/22 A3011 RMK AO2 T02680219

TAF

Not found

Frequencies

Recorded 119.47 MHz AWOS 3
Unicom 122.80 MHz CTAF
Warning: Do not use this data for real-world aviation or navigation. No guarantee of current accuracy is given.